金門航空站 - ATIS

METAR RCBS 251130Z 05013KT 9999 FEW015 26/19 Q1010 NOSIG RMK A2985(B)=

站台狀態:Online
最後更新:2022-09-25 19:30:01